sensor_id;sensor_type;location;lat;lon;timestamp;P1;durP1;ratioP1;P2;durP2;ratioP2
23117;SDS011;11728;50.624;6.014;2023-05-16T00:05:06;9.68;;;4.78;;
23117;SDS011;11728;50.624;6.014;2023-05-16T00:10:27;7.75;;;4.07;;
23117;SDS011;11728;50.624;6.014;2023-05-16T00:15:48;6.43;;;2.95;;
23117;SDS011;11728;50.624;6.014;2023-05-16T00:21:08;7.97;;;3.13;;
23117;SDS011;11728;50.624;6.014;2023-05-16T00:26:29;8.50;;;2.80;;
23117;SDS011;11728;50.624;6.014;2023-05-16T00:31:50;7.88;;;2.50;;
23117;SDS011;11728;50.624;6.014;2023-05-16T00:37:11;4.85;;;2.03;;
23117;SDS011;11728;50.624;6.014;2023-05-16T00:42:32;6.60;;;2.40;;
23117;SDS011;11728;50.624;6.014;2023-05-16T00:47:53;4.97;;;2.28;;
23117;SDS011;11728;50.624;6.014;2023-05-16T00:53:14;6.80;;;2.30;;
23117;SDS011;11728;50.624;6.014;2023-05-16T00:58:36;4.32;;;1.92;;
23117;SDS011;11728;50.624;6.014;2023-05-16T01:03:57;5.32;;;2.22;;
23117;SDS011;11728;50.624;6.014;2023-05-16T01:09:19;8.93;;;2.20;;
23117;SDS011;11728;50.624;6.014;2023-05-16T01:14:47;7.35;;;2.67;;
23117;SDS011;11728;50.624;6.014;2023-05-16T01:31:30;12.32;;;2.72;;
23117;SDS011;11728;50.624;6.014;2023-05-16T01:42:18;10.25;;;2.40;;
23117;SDS011;11728;50.624;6.014;2023-05-16T01:47:44;14.55;;;2.92;;
23117;SDS011;11728;50.624;6.014;2023-05-16T01:53:14;9.10;;;2.30;;
23117;SDS011;11728;50.624;6.014;2023-05-16T01:58:38;11.55;;;2.65;;
23117;SDS011;11728;50.624;6.014;2023-05-16T02:04:01;8.48;;;2.42;;
23117;SDS011;11728;50.624;6.014;2023-05-16T02:09:21;9.35;;;2.67;;
23117;SDS011;11728;50.624;6.014;2023-05-16T02:14:42;12.38;;;2.50;;
23117;SDS011;11728;50.624;6.014;2023-05-16T02:20:03;7.53;;;2.33;;
23117;SDS011;11728;50.624;6.014;2023-05-16T02:25:26;10.43;;;2.72;;
23117;SDS011;11728;50.624;6.014;2023-05-16T02:30:54;13.40;;;3.05;;
23117;SDS011;11728;50.624;6.014;2023-05-16T02:36:16;9.55;;;2.65;;
23117;SDS011;11728;50.624;6.014;2023-05-16T02:41:37;11.32;;;3.08;;
23117;SDS011;11728;50.624;6.014;2023-05-16T02:46:58;13.57;;;3.30;;
23117;SDS011;11728;50.624;6.014;2023-05-16T02:52:19;15.93;;;3.40;;
23117;SDS011;11728;50.624;6.014;2023-05-16T02:57:40;14.88;;;3.28;;
23117;SDS011;11728;50.624;6.014;2023-05-16T03:03:01;16.38;;;3.25;;
23117;SDS011;11728;50.624;6.014;2023-05-16T03:08:21;14.48;;;3.17;;
23117;SDS011;11728;50.624;6.014;2023-05-16T03:13:42;12.07;;;2.88;;
23117;SDS011;11728;50.624;6.014;2023-05-16T03:19:03;15.07;;;3.33;;
23117;SDS011;11728;50.624;6.014;2023-05-16T03:24:24;19.55;;;3.55;;
23117;SDS011;11728;50.624;6.014;2023-05-16T03:29:45;20.33;;;3.90;;
23117;SDS011;11728;50.624;6.014;2023-05-16T03:35:06;17.88;;;2.80;;
23117;SDS011;11728;50.624;6.014;2023-05-16T03:40:27;17.27;;;3.33;;
23117;SDS011;11728;50.624;6.014;2023-05-16T03:45:48;12.50;;;2.60;;
23117;SDS011;11728;50.624;6.014;2023-05-16T03:51:09;14.10;;;3.40;;
23117;SDS011;11728;50.624;6.014;2023-05-16T03:56:29;16.60;;;2.97;;
23117;SDS011;11728;50.624;6.014;2023-05-16T04:01:50;18.80;;;2.60;;
23117;SDS011;11728;50.624;6.014;2023-05-16T04:07:11;13.55;;;3.13;;
23117;SDS011;11728;50.624;6.014;2023-05-16T04:12:31;24.58;;;4.28;;
23117;SDS011;11728;50.624;6.014;2023-05-16T04:17:52;16.30;;;3.08;;
23117;SDS011;11728;50.624;6.014;2023-05-16T04:23:13;17.58;;;3.13;;
23117;SDS011;11728;50.624;6.014;2023-05-16T04:28:34;18.27;;;3.58;;
23117;SDS011;11728;50.624;6.014;2023-05-16T04:33:55;14.25;;;3.35;;
23117;SDS011;11728;50.624;6.014;2023-05-16T04:39:17;17.90;;;2.97;;
23117;SDS011;11728;50.624;6.014;2023-05-16T04:44:38;14.35;;;2.72;;
23117;SDS011;11728;50.624;6.014;2023-05-16T04:49:58;10.80;;;2.45;;
23117;SDS011;11728;50.624;6.014;2023-05-16T04:55:20;14.50;;;3.20;;
23117;SDS011;11728;50.624;6.014;2023-05-16T05:00:41;9.13;;;2.33;;
23117;SDS011;11728;50.624;6.014;2023-05-16T05:06:02;16.55;;;3.15;;
23117;SDS011;11728;50.624;6.014;2023-05-16T05:11:23;18.52;;;3.38;;
23117;SDS011;11728;50.624;6.014;2023-05-16T05:16:46;16.15;;;3.13;;
23117;SDS011;11728;50.624;6.014;2023-05-16T05:22:07;19.10;;;3.42;;
23117;SDS011;11728;50.624;6.014;2023-05-16T05:27:27;15.50;;;2.83;;
23117;SDS011;11728;50.624;6.014;2023-05-16T05:32:48;12.35;;;2.80;;
23117;SDS011;11728;50.624;6.014;2023-05-16T05:38:09;16.73;;;2.78;;
23117;SDS011;11728;50.624;6.014;2023-05-16T05:43:31;20.60;;;3.15;;
23117;SDS011;11728;50.624;6.014;2023-05-16T05:48:52;14.60;;;3.03;;
23117;SDS011;11728;50.624;6.014;2023-05-16T05:54:13;17.40;;;3.53;;
23117;SDS011;11728;50.624;6.014;2023-05-16T05:59:33;13.93;;;3.20;;
23117;SDS011;11728;50.624;6.014;2023-05-16T06:04:54;20.23;;;3.45;;
23117;SDS011;11728;50.624;6.014;2023-05-16T06:10:15;19.73;;;3.08;;
23117;SDS011;11728;50.624;6.014;2023-05-16T06:15:36;9.52;;;2.47;;
23117;SDS011;11728;50.624;6.014;2023-05-16T06:20:56;16.30;;;2.45;;
23117;SDS011;11728;50.624;6.014;2023-05-16T06:26:17;12.80;;;2.92;;
23117;SDS011;11728;50.624;6.014;2023-05-16T06:31:38;16.20;;;2.75;;
23117;SDS011;11728;50.624;6.014;2023-05-16T06:36:59;14.55;;;3.22;;
23117;SDS011;11728;50.624;6.014;2023-05-16T06:42:20;14.98;;;2.47;;
23117;SDS011;11728;50.624;6.014;2023-05-16T06:47:40;11.23;;;2.72;;
23117;SDS011;11728;50.624;6.014;2023-05-16T06:53:01;10.40;;;2.38;;
23117;SDS011;11728;50.624;6.014;2023-05-16T06:58:24;11.93;;;2.10;;
23117;SDS011;11728;50.624;6.014;2023-05-16T07:03:45;13.20;;;2.20;;
23117;SDS011;11728;50.624;6.014;2023-05-16T07:09:05;16.33;;;2.80;;
23117;SDS011;11728;50.624;6.014;2023-05-16T07:14:26;16.08;;;2.53;;
23117;SDS011;11728;50.624;6.014;2023-05-16T07:19:48;10.90;;;2.28;;
23117;SDS011;11728;50.624;6.014;2023-05-16T07:25:09;10.00;;;2.40;;
23117;SDS011;11728;50.624;6.014;2023-05-16T07:30:32;11.27;;;2.75;;
23117;SDS011;11728;50.624;6.014;2023-05-16T07:35:52;13.35;;;2.42;;
23117;SDS011;11728;50.624;6.014;2023-05-16T07:41:13;11.93;;;2.60;;
23117;SDS011;11728;50.624;6.014;2023-05-16T07:46:34;13.30;;;2.10;;
23117;SDS011;11728;50.624;6.014;2023-05-16T07:51:55;12.65;;;2.30;;
23117;SDS011;11728;50.624;6.014;2023-05-16T07:57:16;10.35;;;2.03;;
23117;SDS011;11728;50.624;6.014;2023-05-16T08:02:37;14.35;;;2.17;;
23117;SDS011;11728;50.624;6.014;2023-05-16T08:07:58;11.05;;;2.35;;
23117;SDS011;11728;50.624;6.014;2023-05-16T08:13:19;15.52;;;2.70;;
23117;SDS011;11728;50.624;6.014;2023-05-16T08:18:40;10.13;;;1.77;;
23117;SDS011;11728;50.624;6.014;2023-05-16T08:24:01;11.48;;;1.95;;
23117;SDS011;11728;50.624;6.014;2023-05-16T08:29:24;8.82;;;1.95;;
23117;SDS011;11728;50.624;6.014;2023-05-16T08:34:46;13.05;;;2.10;;
23117;SDS011;11728;50.624;6.014;2023-05-16T08:40:07;10.05;;;2.33;;
23117;SDS011;11728;50.624;6.014;2023-05-16T08:45:29;10.43;;;1.77;;
23117;SDS011;11728;50.624;6.014;2023-05-16T08:50:50;8.02;;;1.73;;
23117;SDS011;11728;50.624;6.014;2023-05-16T08:56:12;10.60;;;2.05;;
23117;SDS011;11728;50.624;6.014;2023-05-16T09:01:36;8.27;;;1.80;;
23117;SDS011;11728;50.624;6.014;2023-05-16T09:06:57;10.05;;;1.98;;
23117;SDS011;11728;50.624;6.014;2023-05-16T09:12:18;11.73;;;1.77;;
23117;SDS011;11728;50.624;6.014;2023-05-16T09:17:43;8.90;;;1.58;;
23117;SDS011;11728;50.624;6.014;2023-05-16T09:23:05;6.45;;;1.45;;
23117;SDS011;11728;50.624;6.014;2023-05-16T09:28:26;5.10;;;1.30;;
23117;SDS011;11728;50.624;6.014;2023-05-16T09:33:47;10.57;;;1.85;;
23117;SDS011;11728;50.624;6.014;2023-05-16T09:39:11;11.15;;;1.98;;
23117;SDS011;11728;50.624;6.014;2023-05-16T09:44:35;7.13;;;1.67;;
23117;SDS011;11728;50.624;6.014;2023-05-16T09:49:57;6.97;;;1.80;;
23117;SDS011;11728;50.624;6.014;2023-05-16T09:55:18;6.75;;;1.60;;
23117;SDS011;11728;50.624;6.014;2023-05-16T10:00:39;4.30;;;1.35;;
23117;SDS011;11728;50.624;6.014;2023-05-16T10:06:01;4.43;;;1.48;;
23117;SDS011;11728;50.624;6.014;2023-05-16T10:11:22;8.73;;;1.42;;
23117;SDS011;11728;50.624;6.014;2023-05-16T10:16:45;5.32;;;1.60;;
23117;SDS011;11728;50.624;6.014;2023-05-16T10:22:07;8.52;;;1.75;;
23117;SDS011;11728;50.624;6.014;2023-05-16T10:27:31;6.65;;;1.35;;
23117;SDS011;11728;50.624;6.014;2023-05-16T10:32:52;5.72;;;1.27;;
23117;SDS011;11728;50.624;6.014;2023-05-16T10:38:16;8.00;;;1.30;;
23117;SDS011;11728;50.624;6.014;2023-05-16T10:43:38;7.00;;;1.50;;
23117;SDS011;11728;50.624;6.014;2023-05-16T10:48:59;5.88;;;1.27;;
23117;SDS011;11728;50.624;6.014;2023-05-16T10:54:40;6.53;;;1.20;;
23117;SDS011;11728;50.624;6.014;2023-05-16T11:00:01;6.00;;;1.17;;
23117;SDS011;11728;50.624;6.014;2023-05-16T11:05:27;8.27;;;1.48;;
23117;SDS011;11728;50.624;6.014;2023-05-16T11:10:49;6.00;;;1.27;;
23117;SDS011;11728;50.624;6.014;2023-05-16T11:16:28;6.72;;;1.40;;
23117;SDS011;11728;50.624;6.014;2023-05-16T11:27:46;8.95;;;1.45;;
23117;SDS011;11728;50.624;6.014;2023-05-16T11:33:07;6.97;;;1.30;;
23117;SDS011;11728;50.624;6.014;2023-05-16T11:38:31;3.45;;;0.98;;
23117;SDS011;11728;50.624;6.014;2023-05-16T11:43:52;5.15;;;1.30;;
23117;SDS011;11728;50.624;6.014;2023-05-16T11:49:13;5.97;;;1.60;;
23117;SDS011;11728;50.624;6.014;2023-05-16T11:54:34;4.68;;;1.45;;
23117;SDS011;11728;50.624;6.014;2023-05-16T12:00:00;7.18;;;1.55;;
23117;SDS011;11728;50.624;6.014;2023-05-16T12:05:51;3.58;;;1.08;;
23117;SDS011;11728;50.624;6.014;2023-05-16T12:11:13;5.43;;;1.50;;
23117;SDS011;11728;50.624;6.014;2023-05-16T12:16:34;2.97;;;1.15;;
23117;SDS011;11728;50.624;6.014;2023-05-16T12:21:57;4.18;;;1.20;;
23117;SDS011;11728;50.624;6.014;2023-05-16T12:27:21;4.88;;;1.25;;
23117;SDS011;11728;50.624;6.014;2023-05-16T12:32:43;4.03;;;1.00;;
23117;SDS011;11728;50.624;6.014;2023-05-16T12:38:05;3.53;;;1.00;;
23117;SDS011;11728;50.624;6.014;2023-05-16T12:43:27;6.28;;;1.40;;
23117;SDS011;11728;50.624;6.014;2023-05-16T12:48:48;8.20;;;1.70;;
23117;SDS011;11728;50.624;6.014;2023-05-16T12:54:24;8.10;;;1.13;;
23117;SDS011;11728;50.624;6.014;2023-05-16T12:59:45;5.00;;;1.00;;
23117;SDS011;11728;50.624;6.014;2023-05-16T13:05:05;6.15;;;1.48;;
23117;SDS011;11728;50.624;6.014;2023-05-16T13:10:27;4.15;;;1.25;;
23117;SDS011;11728;50.624;6.014;2023-05-16T13:15:47;3.97;;;1.45;;
23117;SDS011;11728;50.624;6.014;2023-05-16T13:21:08;4.00;;;1.40;;
23117;SDS011;11728;50.624;6.014;2023-05-16T13:26:29;5.95;;;1.40;;
23117;SDS011;11728;50.624;6.014;2023-05-16T13:31:50;5.32;;;1.38;;
23117;SDS011;11728;50.624;6.014;2023-05-16T13:37:11;7.15;;;1.27;;
23117;SDS011;11728;50.624;6.014;2023-05-16T13:42:32;9.35;;;1.50;;
23117;SDS011;11728;50.624;6.014;2023-05-16T13:47:53;3.45;;;1.17;;
23117;SDS011;11728;50.624;6.014;2023-05-16T13:53:13;7.90;;;1.35;;
23117;SDS011;11728;50.624;6.014;2023-05-16T13:58:34;7.88;;;1.20;;
23117;SDS011;11728;50.624;6.014;2023-05-16T14:03:55;7.07;;;1.33;;
23117;SDS011;11728;50.624;6.014;2023-05-16T14:09:16;3.83;;;1.15;;
23117;SDS011;11728;50.624;6.014;2023-05-16T14:14:36;4.20;;;1.08;;
23117;SDS011;11728;50.624;6.014;2023-05-16T14:19:57;4.60;;;1.45;;
23117;SDS011;11728;50.624;6.014;2023-05-16T14:25:18;8.95;;;1.38;;
23117;SDS011;11728;50.624;6.014;2023-05-16T14:30:39;6.75;;;1.35;;
23117;SDS011;11728;50.624;6.014;2023-05-16T14:35:59;4.88;;;1.10;;
23117;SDS011;11728;50.624;6.014;2023-05-16T14:41:20;4.00;;;1.10;;
23117;SDS011;11728;50.624;6.014;2023-05-16T14:46:41;7.20;;;1.45;;
23117;SDS011;11728;50.624;6.014;2023-05-16T14:52:02;4.95;;;1.35;;
23117;SDS011;11728;50.624;6.014;2023-05-16T14:57:23;6.15;;;1.20;;
23117;SDS011;11728;50.624;6.014;2023-05-16T15:02:44;6.65;;;1.50;;
23117;SDS011;11728;50.624;6.014;2023-05-16T15:08:05;6.88;;;1.42;;
23117;SDS011;11728;50.624;6.014;2023-05-16T15:13:26;6.00;;;1.58;;
23117;SDS011;11728;50.624;6.014;2023-05-16T15:18:46;6.68;;;1.30;;
23117;SDS011;11728;50.624;6.014;2023-05-16T15:24:07;9.20;;;2.22;;
23117;SDS011;11728;50.624;6.014;2023-05-16T15:29:28;6.75;;;1.67;;
23117;SDS011;11728;50.624;6.014;2023-05-16T15:34:49;6.07;;;1.60;;
23117;SDS011;11728;50.624;6.014;2023-05-16T15:40:10;5.07;;;1.83;;
23117;SDS011;11728;50.624;6.014;2023-05-16T15:45:31;8.73;;;1.80;;
23117;SDS011;11728;50.624;6.014;2023-05-16T15:50:52;6.65;;;2.00;;
23117;SDS011;11728;50.624;6.014;2023-05-16T15:56:14;10.35;;;2.13;;
23117;SDS011;11728;50.624;6.014;2023-05-16T16:01:35;5.22;;;2.30;;
23117;SDS011;11728;50.624;6.014;2023-05-16T16:06:56;6.78;;;1.67;;
23117;SDS011;11728;50.624;6.014;2023-05-16T16:12:16;6.65;;;1.50;;
23117;SDS011;11728;50.624;6.014;2023-05-16T16:17:37;7.30;;;2.35;;
23117;SDS011;11728;50.624;6.014;2023-05-16T16:22:58;5.20;;;1.75;;
23117;SDS011;11728;50.624;6.014;2023-05-16T16:28:19;8.10;;;1.60;;
23117;SDS011;11728;50.624;6.014;2023-05-16T16:33:40;7.80;;;1.90;;
23117;SDS011;11728;50.624;6.014;2023-05-16T16:39:01;5.75;;;1.60;;
23117;SDS011;11728;50.624;6.014;2023-05-16T16:44:25;6.95;;;1.80;;
23117;SDS011;11728;50.624;6.014;2023-05-16T16:49:45;7.38;;;1.55;;
23117;SDS011;11728;50.624;6.014;2023-05-16T16:55:06;8.98;;;1.90;;
23117;SDS011;11728;50.624;6.014;2023-05-16T17:00:28;8.27;;;2.13;;
23117;SDS011;11728;50.624;6.014;2023-05-16T17:05:49;9.65;;;2.15;;
23117;SDS011;11728;50.624;6.014;2023-05-16T17:11:10;6.40;;;1.90;;
23117;SDS011;11728;50.624;6.014;2023-05-16T17:16:30;5.78;;;1.50;;
23117;SDS011;11728;50.624;6.014;2023-05-16T17:21:51;5.80;;;1.42;;
23117;SDS011;11728;50.624;6.014;2023-05-16T17:27:12;11.15;;;2.33;;
23117;SDS011;11728;50.624;6.014;2023-05-16T17:32:33;9.90;;;1.95;;
23117;SDS011;11728;50.624;6.014;2023-05-16T17:37:53;8.65;;;1.80;;
23117;SDS011;11728;50.624;6.014;2023-05-16T17:43:14;5.85;;;1.80;;
23117;SDS011;11728;50.624;6.014;2023-05-16T17:48:35;6.53;;;2.13;;
23117;SDS011;11728;50.624;6.014;2023-05-16T17:53:55;6.28;;;2.15;;
23117;SDS011;11728;50.624;6.014;2023-05-16T17:59:16;8.07;;;1.83;;
23117;SDS011;11728;50.624;6.014;2023-05-16T18:04:38;7.60;;;2.25;;
23117;SDS011;11728;50.624;6.014;2023-05-16T18:09:59;5.53;;;2.10;;
23117;SDS011;11728;50.624;6.014;2023-05-16T18:15:20;8.45;;;1.83;;
23117;SDS011;11728;50.624;6.014;2023-05-16T18:20:41;4.25;;;1.63;;
23117;SDS011;11728;50.624;6.014;2023-05-16T18:26:02;7.30;;;1.80;;
23117;SDS011;11728;50.624;6.014;2023-05-16T18:31:23;6.32;;;1.80;;
23117;SDS011;11728;50.624;6.014;2023-05-16T18:36:44;6.38;;;1.85;;
23117;SDS011;11728;50.624;6.014;2023-05-16T18:42:05;6.53;;;1.80;;
23117;SDS011;11728;50.624;6.014;2023-05-16T18:47:25;6.22;;;1.90;;
23117;SDS011;11728;50.624;6.014;2023-05-16T18:52:46;4.15;;;1.40;;
23117;SDS011;11728;50.624;6.014;2023-05-16T18:58:07;7.13;;;2.13;;
23117;SDS011;11728;50.624;6.014;2023-05-16T19:03:28;4.72;;;1.55;;
23117;SDS011;11728;50.624;6.014;2023-05-16T19:08:49;8.00;;;2.13;;
23117;SDS011;11728;50.624;6.014;2023-05-16T19:14:10;6.75;;;1.95;;
23117;SDS011;11728;50.624;6.014;2023-05-16T19:19:31;8.23;;;1.80;;
23117;SDS011;11728;50.624;6.014;2023-05-16T19:24:52;5.10;;;1.75;;
23117;SDS011;11728;50.624;6.014;2023-05-16T19:30:13;5.40;;;1.75;;
23117;SDS011;11728;50.624;6.014;2023-05-16T19:35:34;8.88;;;2.00;;
23117;SDS011;11728;50.624;6.014;2023-05-16T19:40:55;7.30;;;1.80;;
23117;SDS011;11728;50.624;6.014;2023-05-16T19:46:16;8.77;;;1.83;;
23117;SDS011;11728;50.624;6.014;2023-05-16T19:51:37;7.35;;;1.90;;
23117;SDS011;11728;50.624;6.014;2023-05-16T19:56:57;6.65;;;2.00;;
23117;SDS011;11728;50.624;6.014;2023-05-16T20:02:18;11.70;;;2.30;;
23117;SDS011;11728;50.624;6.014;2023-05-16T20:07:39;7.35;;;2.22;;
23117;SDS011;11728;50.624;6.014;2023-05-16T20:13:00;9.50;;;2.00;;
23117;SDS011;11728;50.624;6.014;2023-05-16T20:18:21;9.68;;;1.45;;
23117;SDS011;11728;50.624;6.014;2023-05-16T20:23:42;7.57;;;1.70;;
23117;SDS011;11728;50.624;6.014;2023-05-16T20:29:03;4.88;;;1.75;;
23117;SDS011;11728;50.624;6.014;2023-05-16T20:34:23;8.68;;;2.08;;
23117;SDS011;11728;50.624;6.014;2023-05-16T20:39:45;9.52;;;1.55;;
23117;SDS011;11728;50.624;6.014;2023-05-16T20:45:06;5.35;;;1.85;;
23117;SDS011;11728;50.624;6.014;2023-05-16T20:50:27;8.63;;;2.03;;
23117;SDS011;11728;50.624;6.014;2023-05-16T20:55:48;5.63;;;1.63;;
23117;SDS011;11728;50.624;6.014;2023-05-16T21:01:08;7.93;;;1.80;;
23117;SDS011;11728;50.624;6.014;2023-05-16T21:06:29;9.85;;;1.90;;
23117;SDS011;11728;50.624;6.014;2023-05-16T21:11:50;8.55;;;1.80;;
23117;SDS011;11728;50.624;6.014;2023-05-16T21:17:11;6.88;;;1.67;;
23117;SDS011;11728;50.624;6.014;2023-05-16T21:22:32;6.05;;;1.70;;
23117;SDS011;11728;50.624;6.014;2023-05-16T21:27:53;6.57;;;1.80;;
23117;SDS011;11728;50.624;6.014;2023-05-16T21:33:13;5.28;;;1.70;;
23117;SDS011;11728;50.624;6.014;2023-05-16T21:38:34;7.35;;;1.73;;
23117;SDS011;11728;50.624;6.014;2023-05-16T21:43:55;9.25;;;1.85;;
23117;SDS011;11728;50.624;6.014;2023-05-16T21:49:16;3.65;;;1.35;;
23117;SDS011;11728;50.624;6.014;2023-05-16T21:54:36;7.32;;;1.52;;
23117;SDS011;11728;50.624;6.014;2023-05-16T21:59:57;5.05;;;1.33;;
23117;SDS011;11728;50.624;6.014;2023-05-16T22:05:18;8.95;;;1.55;;
23117;SDS011;11728;50.624;6.014;2023-05-16T22:10:39;4.95;;;1.75;;
23117;SDS011;11728;50.624;6.014;2023-05-16T22:16:00;5.00;;;1.42;;
23117;SDS011;11728;50.624;6.014;2023-05-16T22:21:21;6.25;;;1.58;;
23117;SDS011;11728;50.624;6.014;2023-05-16T22:26:41;2.83;;;1.23;;
23117;SDS011;11728;50.624;6.014;2023-05-16T22:32:05;5.68;;;1.30;;
23117;SDS011;11728;50.624;6.014;2023-05-16T22:37:27;5.28;;;1.58;;
23117;SDS011;11728;50.624;6.014;2023-05-16T22:42:48;8.40;;;1.80;;
23117;SDS011;11728;50.624;6.014;2023-05-16T22:48:09;5.20;;;1.52;;
23117;SDS011;11728;50.624;6.014;2023-05-16T22:53:30;4.78;;;1.75;;
23117;SDS011;11728;50.624;6.014;2023-05-16T22:58:50;7.60;;;2.00;;
23117;SDS011;11728;50.624;6.014;2023-05-16T23:04:11;8.27;;;1.73;;
23117;SDS011;11728;50.624;6.014;2023-05-16T23:09:32;8.32;;;2.30;;
23117;SDS011;11728;50.624;6.014;2023-05-16T23:14:53;4.57;;;1.85;;
23117;SDS011;11728;50.624;6.014;2023-05-16T23:20:13;6.72;;;2.03;;
23117;SDS011;11728;50.624;6.014;2023-05-16T23:25:34;8.10;;;2.28;;
23117;SDS011;11728;50.624;6.014;2023-05-16T23:30:55;7.18;;;2.25;;
23117;SDS011;11728;50.624;6.014;2023-05-16T23:36:16;7.30;;;2.33;;
23117;SDS011;11728;50.624;6.014;2023-05-16T23:41:36;7.22;;;1.98;;
23117;SDS011;11728;50.624;6.014;2023-05-16T23:46:57;7.70;;;2.42;;
23117;SDS011;11728;50.624;6.014;2023-05-16T23:52:18;8.35;;;2.47;;
23117;SDS011;11728;50.624;6.014;2023-05-16T23:57:39;9.77;;;2.55;;
